sensor_id;sensor_type;location;lat;lon;timestamp;P1;durP1;ratioP1;P2;durP2;ratioP2
54502;SDS011;40411;50.090;21.954;2022-07-29T00:01:23;5.82;;;2.83;;
54502;SDS011;40411;50.090;21.954;2022-07-29T00:03:49;7.18;;;2.85;;
54502;SDS011;40411;50.090;21.954;2022-07-29T00:06:15;7.25;;;3.35;;
54502;SDS011;40411;50.090;21.954;2022-07-29T00:08:41;8.00;;;3.38;;
54502;SDS011;40411;50.090;21.954;2022-07-29T00:11:06;10.88;;;3.67;;
54502;SDS011;40411;50.090;21.954;2022-07-29T00:13:32;9.18;;;3.13;;
54502;SDS011;40411;50.090;21.954;2022-07-29T00:15:58;8.30;;;3.72;;
54502;SDS011;40411;50.090;21.954;2022-07-29T00:18:24;5.53;;;2.95;;
54502;SDS011;40411;50.090;21.954;2022-07-29T00:20:50;8.30;;;3.15;;
54502;SDS011;40411;50.090;21.954;2022-07-29T00:23:16;6.05;;;2.95;;
54502;SDS011;40411;50.090;21.954;2022-07-29T00:25:42;11.15;;;3.70;;
54502;SDS011;40411;50.090;21.954;2022-07-29T00:28:08;8.70;;;3.22;;
54502;SDS011;40411;50.090;21.954;2022-07-29T00:30:33;14.18;;;3.60;;
54502;SDS011;40411;50.090;21.954;2022-07-29T00:32:59;6.20;;;2.88;;
54502;SDS011;40411;50.090;21.954;2022-07-29T00:35:25;7.35;;;3.38;;
54502;SDS011;40411;50.090;21.954;2022-07-29T00:38:10;6.90;;;2.90;;
54502;SDS011;40411;50.090;21.954;2022-07-29T00:40:37;9.27;;;2.70;;
54502;SDS011;40411;50.090;21.954;2022-07-29T00:43:02;5.82;;;2.60;;
54502;SDS011;40411;50.090;21.954;2022-07-29T00:45:28;8.20;;;3.15;;
54502;SDS011;40411;50.090;21.954;2022-07-29T00:47:55;5.95;;;3.00;;
54502;SDS011;40411;50.090;21.954;2022-07-29T00:50:21;13.75;;;3.17;;
54502;SDS011;40411;50.090;21.954;2022-07-29T00:52:48;8.48;;;3.30;;
54502;SDS011;40411;50.090;21.954;2022-07-29T00:55:15;9.43;;;3.53;;
54502;SDS011;40411;50.090;21.954;2022-07-29T00:57:41;11.25;;;3.53;;
54502;SDS011;40411;50.090;21.954;2022-07-29T01:00:09;7.97;;;3.58;;
54502;SDS011;40411;50.090;21.954;2022-07-29T01:02:46;7.68;;;3.33;;
54502;SDS011;40411;50.090;21.954;2022-07-29T01:05:13;11.80;;;4.13;;
54502;SDS011;40411;50.090;21.954;2022-07-29T01:07:41;7.75;;;3.65;;
54502;SDS011;40411;50.090;21.954;2022-07-29T01:10:09;9.68;;;3.50;;
54502;SDS011;40411;50.090;21.954;2022-07-29T01:12:38;8.52;;;4.10;;
54502;SDS011;40411;50.090;21.954;2022-07-29T01:15:05;9.35;;;4.35;;
54502;SDS011;40411;50.090;21.954;2022-07-29T01:22:42;10.25;;;4.20;;
54502;SDS011;40411;50.090;21.954;2022-07-29T01:30:39;10.07;;;4.32;;
54502;SDS011;40411;50.090;21.954;2022-07-29T01:33:09;8.32;;;3.85;;
54502;SDS011;40411;50.090;21.954;2022-07-29T01:35:59;10.25;;;4.10;;
54502;SDS011;40411;50.090;21.954;2022-07-29T01:38:30;10.77;;;4.68;;
54502;SDS011;40411;50.090;21.954;2022-07-29T01:41:03;6.65;;;3.47;;
54502;SDS011;40411;50.090;21.954;2022-07-29T01:46:38;10.88;;;3.90;;
54502;SDS011;40411;50.090;21.954;2022-07-29T01:49:10;9.00;;;4.15;;
54502;SDS011;40411;50.090;21.954;2022-07-29T01:51:53;7.88;;;4.25;;
54502;SDS011;40411;50.090;21.954;2022-07-29T01:54:25;10.43;;;4.57;;
54502;SDS011;40411;50.090;21.954;2022-07-29T01:56:55;10.27;;;3.83;;
54502;SDS011;40411;50.090;21.954;2022-07-29T01:59:24;8.80;;;4.38;;
54502;SDS011;40411;50.090;21.954;2022-07-29T02:01:52;8.65;;;3.90;;
54502;SDS011;40411;50.090;21.954;2022-07-29T02:04:20;9.55;;;4.13;;
54502;SDS011;40411;50.090;21.954;2022-07-29T02:06:47;7.63;;;4.15;;
54502;SDS011;40411;50.090;21.954;2022-07-29T02:09:16;7.63;;;4.13;;
54502;SDS011;40411;50.090;21.954;2022-07-29T02:11:47;9.70;;;4.75;;
54502;SDS011;40411;50.090;21.954;2022-07-29T02:14:18;10.07;;;4.72;;
54502;SDS011;40411;50.090;21.954;2022-07-29T02:16:44;10.50;;;3.75;;
54502;SDS011;40411;50.090;21.954;2022-07-29T02:19:12;8.32;;;4.03;;
54502;SDS011;40411;50.090;21.954;2022-07-29T02:21:40;13.98;;;4.32;;
54502;SDS011;40411;50.090;21.954;2022-07-29T02:24:08;9.32;;;4.35;;
54502;SDS011;40411;50.090;21.954;2022-07-29T02:26:37;9.13;;;4.13;;
54502;SDS011;40411;50.090;21.954;2022-07-29T02:29:05;6.47;;;3.47;;
54502;SDS011;40411;50.090;21.954;2022-07-29T02:31:34;7.10;;;4.07;;
54502;SDS011;40411;50.090;21.954;2022-07-29T02:34:01;7.88;;;4.07;;
54502;SDS011;40411;50.090;21.954;2022-07-29T02:36:30;8.30;;;3.95;;
54502;SDS011;40411;50.090;21.954;2022-07-29T02:38:58;7.03;;;4.10;;
54502;SDS011;40411;50.090;21.954;2022-07-29T02:41:30;7.05;;;3.72;;
54502;SDS011;40411;50.090;21.954;2022-07-29T02:44:12;8.57;;;3.97;;
54502;SDS011;40411;50.090;21.954;2022-07-29T02:46:51;8.45;;;3.78;;
54502;SDS011;40411;50.090;21.954;2022-07-29T02:52:30;9.73;;;3.75;;
54502;SDS011;40411;50.090;21.954;2022-07-29T02:57:42;8.00;;;3.90;;
54502;SDS011;40411;50.090;21.954;2022-07-29T03:00:12;6.20;;;3.30;;
54502;SDS011;40411;50.090;21.954;2022-07-29T03:02:44;8.02;;;3.53;;
